sensor_id;sensor_type;location;lat;lon;timestamp;P1;durP1;ratioP1;P2;durP2;ratioP2
68010;SDS011;54794;48.348;7.878;2022-09-17T00:01:26;1.40;;;0.28;;
68010;SDS011;54794;48.348;7.878;2022-09-17T00:03:56;1.58;;;0.30;;
68010;SDS011;54794;48.348;7.878;2022-09-17T00:06:30;1.60;;;0.30;;
68010;SDS011;54794;48.348;7.878;2022-09-17T00:09:00;0.45;;;0.30;;
68010;SDS011;54794;48.348;7.878;2022-09-17T00:11:30;0.98;;;0.20;;
68010;SDS011;54794;48.348;7.878;2022-09-17T00:14:01;1.02;;;0.28;;
68010;SDS011;54794;48.348;7.878;2022-09-17T00:16:37;5.35;;;0.25;;
68010;SDS011;54794;48.348;7.878;2022-09-17T00:19:09;0.85;;;0.30;;
68010;SDS011;54794;48.348;7.878;2022-09-17T00:21:42;0.40;;;0.30;;
68010;SDS011;54794;48.348;7.878;2022-09-17T00:24:10;1.83;;;0.30;;
68010;SDS011;54794;48.348;7.878;2022-09-17T00:26:39;0.20;;;0.20;;
68010;SDS011;54794;48.348;7.878;2022-09-17T00:29:06;0.85;;;0.15;;
68010;SDS011;54794;48.348;7.878;2022-09-17T00:34:02;0.50;;;0.20;;
68010;SDS011;54794;48.348;7.878;2022-09-17T00:36:31;0.10;;;0.10;;
68010;SDS011;54794;48.348;7.878;2022-09-17T00:39:02;0.85;;;0.25;;
68010;SDS011;54794;48.348;7.878;2022-09-17T00:41:31;0.68;;;0.40;;
68010;SDS011;54794;48.348;7.878;2022-09-17T00:44:34;2.08;;;0.73;;
68010;SDS011;54794;48.348;7.878;2022-09-17T00:47:07;1.48;;;0.40;;
68010;SDS011;54794;48.348;7.878;2022-09-17T00:49:42;0.47;;;0.20;;
68010;SDS011;54794;48.348;7.878;2022-09-17T00:52:12;0.63;;;0.20;;
68010;SDS011;54794;48.348;7.878;2022-09-17T00:54:48;0.25;;;0.20;;
68010;SDS011;54794;48.348;7.878;2022-09-17T00:57:24;2.05;;;0.20;;
68010;SDS011;54794;48.348;7.878;2022-09-17T00:59:52;0.35;;;0.28;;
68010;SDS011;54794;48.348;7.878;2022-09-17T01:02:19;1.02;;;0.20;;
68010;SDS011;54794;48.348;7.878;2022-09-17T01:04:46;1.08;;;0.47;;
68010;SDS011;54794;48.348;7.878;2022-09-17T01:13:36;0.35;;;0.10;;
68010;SDS011;54794;48.348;7.878;2022-09-17T01:16:19;1.58;;;0.65;;
68010;SDS011;54794;48.348;7.878;2022-09-17T01:26:14;0.20;;;0.10;;
68010;SDS011;54794;48.348;7.878;2022-09-17T01:29:32;1.27;;;0.38;;
68010;SDS011;54794;48.348;7.878;2022-09-17T01:32:23;1.58;;;0.25;;
68010;SDS011;54794;48.348;7.878;2022-09-17T01:38:12;0.98;;;0.30;;
68010;SDS011;54794;48.348;7.878;2022-09-17T01:41:04;1.73;;;0.25;;
68010;SDS011;54794;48.348;7.878;2022-09-17T01:44:03;1.48;;;0.55;;
68010;SDS011;54794;48.348;7.878;2022-09-17T01:46:42;1.70;;;0.65;;
68010;SDS011;54794;48.348;7.878;2022-09-17T01:49:18;2.65;;;0.40;;
68010;SDS011;54794;48.348;7.878;2022-09-17T01:51:50;2.35;;;0.30;;
68010;SDS011;54794;48.348;7.878;2022-09-17T01:54:39;0.10;;;0.10;;
68010;SDS011;54794;48.348;7.878;2022-09-17T01:57:17;0.43;;;0.20;;
68010;SDS011;54794;48.348;7.878;2022-09-17T02:02:34;0.63;;;0.30;;
68010;SDS011;54794;48.348;7.878;2022-09-17T02:05:28;2.75;;;0.30;;
68010;SDS011;54794;48.348;7.878;2022-09-17T02:08:08;0.98;;;0.30;;
68010;SDS011;54794;48.348;7.878;2022-09-17T02:10:49;0.68;;;0.30;;
68010;SDS011;54794;48.348;7.878;2022-09-17T02:13:31;4.70;;;0.38;;
68010;SDS011;54794;48.348;7.878;2022-09-17T02:16:07;1.50;;;0.30;;
68010;SDS011;54794;48.348;7.878;2022-09-17T02:18:44;1.05;;;0.40;;
68010;SDS011;54794;48.348;7.878;2022-09-17T02:28:07;2.58;;;0.50;;
68010;SDS011;54794;48.348;7.878;2022-09-17T02:31:04;1.75;;;0.30;;
68010;SDS011;54794;48.348;7.878;2022-09-17T02:33:32;1.27;;;0.22;;
68010;SDS011;54794;48.348;7.878;2022-09-17T02:36:02;0.95;;;0.20;;
68010;SDS011;54794;48.348;7.878;2022-09-17T02:38:29;1.90;;;0.40;;
68010;SDS011;54794;48.348;7.878;2022-09-17T02:49:46;0.63;;;0.30;;
68010;SDS011;54794;48.348;7.878;2022-09-17T02:55:18;1.73;;;0.40;;
68010;SDS011;54794;48.348;7.878;2022-09-17T03:01:23;1.48;;;0.30;;
68010;SDS011;54794;48.348;7.878;2022-09-17T03:04:04;1.20;;;0.43;;
68010;SDS011;54794;48.348;7.878;2022-09-17T03:06:38;0.70;;;0.30;;
68010;SDS011;54794;48.348;7.878;2022-09-17T03:09:06;0.70;;;0.30;;
68010;SDS011;54794;48.348;7.878;2022-09-17T03:11:34;0.50;;;0.20;;
68010;SDS011;54794;48.348;7.878;2022-09-17T03:14:01;1.00;;;0.30;;
68010;SDS011;54794;48.348;7.878;2022-09-17T03:16:28;0.55;;;0.30;;
68010;SDS011;54794;48.348;7.878;2022-09-17T03:18:55;3.33;;;0.30;;
68010;SDS011;54794;48.348;7.878;2022-09-17T03:21:22;0.30;;;0.20;;
68010;SDS011;54794;48.348;7.878;2022-09-17T03:23:49;0.80;;;0.20;;
68010;SDS011;54794;48.348;7.878;2022-09-17T03:26:15;1.33;;;0.30;;
68010;SDS011;54794;48.348;7.878;2022-09-17T03:28:42;1.67;;;0.30;;
68010;SDS011;54794;48.348;7.878;2022-09-17T03:31:09;1.17;;;0.38;;
68010;SDS011;54794;48.348;7.878;2022-09-17T03:33:36;1.40;;;0.32;;
68010;SDS011;54794;48.348;7.878;2022-09-17T03:36:03;0.40;;;0.20;;
68010;SDS011;54794;48.348;7.878;2022-09-17T03:38:30;0.50;;;0.17;;
68010;SDS011;54794;48.348;7.878;2022-09-17T03:41:00;1.25;;;0.35;;
68010;SDS011;54794;48.348;7.878;2022-09-17T03:43:29;0.60;;;0.20;;
68010;SDS011;54794;48.348;7.878;2022-09-17T03:45:56;1.60;;;0.30;;
68010;SDS011;54794;48.348;7.878;2022-09-17T03:48:23;1.93;;;0.47;;
68010;SDS011;54794;48.348;7.878;2022-09-17T03:50:50;2.00;;;0.50;;
68010;SDS011;54794;48.348;7.878;2022-09-17T03:53:16;1.40;;;0.50;;
68010;SDS011;54794;48.348;7.878;2022-09-17T03:55:43;2.23;;;0.40;;
68010;SDS011;54794;48.348;7.878;2022-09-17T03:58:10;0.60;;;0.27;;
68010;SDS011;54794;48.348;7.878;2022-09-17T04:00:37;1.67;;;0.30;;
68010;SDS011;54794;48.348;7.878;2022-09-17T04:03:04;1.30;;;0.50;;
68010;SDS011;54794;48.348;7.878;2022-09-17T04:05:32;1.83;;;0.30;;
68010;SDS011;54794;48.348;7.878;2022-09-17T04:07:58;1.60;;;0.63;;
68010;SDS011;54794;48.348;7.878;2022-09-17T04:10:25;1.85;;;0.40;;
68010;SDS011;54794;48.348;7.878;2022-09-17T04:12:52;2.73;;;0.30;;
68010;SDS011;54794;48.348;7.878;2022-09-17T04:15:19;1.67;;;0.77;;
68010;SDS011;54794;48.348;7.878;2022-09-17T04:17:46;1.47;;;0.40;;
68010;SDS011;54794;48.348;7.878;2022-09-17T04:20:13;2.80;;;0.32;;
68010;SDS011;54794;48.348;7.878;2022-09-17T04:22:40;1.08;;;0.30;;
68010;SDS011;54794;48.348;7.878;2022-09-17T04:25:07;0.93;;;0.40;;
68010;SDS011;54794;48.348;7.878;2022-09-17T04:27:34;0.95;;;0.30;;
68010;SDS011;54794;48.348;7.878;2022-09-17T04:30:00;0.80;;;0.30;;
68010;SDS011;54794;48.348;7.878;2022-09-17T04:32:27;2.13;;;0.43;;
68010;SDS011;54794;48.348;7.878;2022-09-17T04:34:54;4.53;;;0.30;;
68010;SDS011;54794;48.348;7.878;2022-09-17T04:37:21;1.03;;;0.20;;
68010;SDS011;54794;48.348;7.878;2022-09-17T04:39:51;0.88;;;0.25;;
68010;SDS011;54794;48.348;7.878;2022-09-17T04:42:18;0.73;;;0.30;;
68010;SDS011;54794;48.348;7.878;2022-09-17T04:44:45;1.98;;;0.43;;
68010;SDS011;54794;48.348;7.878;2022-09-17T04:47:11;2.13;;;0.30;;
68010;SDS011;54794;48.348;7.878;2022-09-17T04:49:39;0.75;;;0.30;;
68010;SDS011;54794;48.348;7.878;2022-09-17T04:52:06;2.42;;;0.43;;
68010;SDS011;54794;48.348;7.878;2022-09-17T04:54:32;1.83;;;0.50;;
68010;SDS011;54794;48.348;7.878;2022-09-17T04:56:59;1.50;;;0.40;;
68010;SDS011;54794;48.348;7.878;2022-09-17T04:59:26;2.50;;;0.40;;
68010;SDS011;54794;48.348;7.878;2022-09-17T05:01:53;1.97;;;0.53;;
68010;SDS011;54794;48.348;7.878;2022-09-17T05:04:20;2.07;;;0.63;;
68010;SDS011;54794;48.348;7.878;2022-09-17T05:06:47;1.40;;;0.50;;
68010;SDS011;54794;48.348;7.878;2022-09-17T05:09:14;3.35;;;0.40;;
68010;SDS011;54794;48.348;7.878;2022-09-17T05:11:41;0.73;;;0.50;;
68010;SDS011;54794;48.348;7.878;2022-09-17T05:14:08;0.80;;;0.30;;
68010;SDS011;54794;48.348;7.878;2022-09-17T05:16:35;2.83;;;0.50;;
68010;SDS011;54794;48.348;7.878;2022-09-17T05:19:02;1.02;;;0.30;;
68010;SDS011;54794;48.348;7.878;2022-09-17T05:21:29;2.13;;;0.30;;
68010;SDS011;54794;48.348;7.878;2022-09-17T05:23:56;0.98;;;0.38;;
68010;SDS011;54794;48.348;7.878;2022-09-17T05:26:23;1.10;;;0.38;;
68010;SDS011;54794;48.348;7.878;2022-09-17T05:28:50;1.20;;;0.30;;
68010;SDS011;54794;48.348;7.878;2022-09-17T05:31:17;3.37;;;0.40;;
68010;SDS011;54794;48.348;7.878;2022-09-17T05:33:44;1.55;;;0.50;;
68010;SDS011;54794;48.348;7.878;2022-09-17T05:36:11;3.50;;;0.40;;
68010;SDS011;54794;48.348;7.878;2022-09-17T05:38:37;1.00;;;0.30;;
68010;SDS011;54794;48.348;7.878;2022-09-17T05:41:05;1.10;;;0.30;;
68010;SDS011;54794;48.348;7.878;2022-09-17T05:43:32;1.40;;;0.52;;
68010;SDS011;54794;48.348;7.878;2022-09-17T05:46:00;1.08;;;0.50;;
68010;SDS011;54794;48.348;7.878;2022-09-17T05:48:28;0.40;;;0.30;;
68010;SDS011;54794;48.348;7.878;2022-09-17T05:50:55;2.75;;;0.30;;
68010;SDS011;54794;48.348;7.878;2022-09-17T05:53:22;0.55;;;0.32;;
68010;SDS011;54794;48.348;7.878;2022-09-17T05:55:49;1.02;;;0.43;;
68010;SDS011;54794;48.348;7.878;2022-09-17T05:58:17;0.93;;;0.40;;
68010;SDS011;54794;48.348;7.878;2022-09-17T06:00:45;0.55;;;0.30;;
68010;SDS011;54794;48.348;7.878;2022-09-17T06:03:15;0.52;;;0.40;;
68010;SDS011;54794;48.348;7.878;2022-09-17T06:05:51;2.70;;;0.40;;
68010;SDS011;54794;48.348;7.878;2022-09-17T06:08:20;1.35;;;0.50;;
68010;SDS011;54794;48.348;7.878;2022-09-17T06:10:48;2.03;;;0.60;;
68010;SDS011;54794;48.348;7.878;2022-09-17T06:13:16;1.42;;;0.22;;
68010;SDS011;54794;48.348;7.878;2022-09-17T06:15:50;0.70;;;0.20;;
68010;SDS011;54794;48.348;7.878;2022-09-17T06:18:19;2.63;;;0.20;;
68010;SDS011;54794;48.348;7.878;2022-09-17T06:20:59;1.70;;;0.60;;
68010;SDS011;54794;48.348;7.878;2022-09-17T06:23:31;1.13;;;0.35;;
68010;SDS011;54794;48.348;7.878;2022-09-17T06:26:02;1.58;;;0.30;;
68010;SDS011;54794;48.348;7.878;2022-09-17T06:28:31;2.03;;;0.47;;
68010;SDS011;54794;48.348;7.878;2022-09-17T06:31:03;2.58;;;0.50;;
68010;SDS011;54794;48.348;7.878;2022-09-17T06:33:33;1.70;;;0.60;;
68010;SDS011;54794;48.348;7.878;2022-09-17T06:36:03;0.85;;;0.40;;
68010;SDS011;54794;48.348;7.878;2022-09-17T06:38:38;2.97;;;0.60;;
68010;SDS011;54794;48.348;7.878;2022-09-17T06:41:06;2.45;;;0.40;;
68010;SDS011;54794;48.348;7.878;2022-09-17T06:43:33;0.93;;;0.30;;
68010;SDS011;54794;48.348;7.878;2022-09-17T06:46:00;0.83;;;0.40;;
68010;SDS011;54794;48.348;7.878;2022-09-17T06:48:35;0.75;;;0.30;;
68010;SDS011;54794;48.348;7.878;2022-09-17T06:51:04;0.90;;;0.40;;
68010;SDS011;54794;48.348;7.878;2022-09-17T06:53:34;1.27;;;0.30;;
68010;SDS011;54794;48.348;7.878;2022-09-17T06:56:03;1.45;;;0.50;;
68010;SDS011;54794;48.348;7.878;2022-09-17T06:58:32;1.10;;;0.40;;
68010;SDS011;54794;48.348;7.878;2022-09-17T07:01:07;0.95;;;0.30;;
68010;SDS011;54794;48.348;7.878;2022-09-17T07:03:38;1.42;;;0.30;;
68010;SDS011;54794;48.348;7.878;2022-09-17T07:06:10;1.83;;;0.50;;
68010;SDS011;54794;48.348;7.878;2022-09-17T07:08:37;1.35;;;0.40;;
68010;SDS011;54794;48.348;7.878;2022-09-17T07:11:04;1.10;;;0.30;;
68010;SDS011;54794;48.348;7.878;2022-09-17T07:13:31;2.85;;;0.55;;
68010;SDS011;54794;48.348;7.878;2022-09-17T07:15:59;3.65;;;0.65;;
68010;SDS011;54794;48.348;7.878;2022-09-17T07:18:29;2.10;;;0.73;;
68010;SDS011;54794;48.348;7.878;2022-09-17T07:20:57;3.20;;;0.57;;
68010;SDS011;54794;48.348;7.878;2022-09-17T07:23:29;3.75;;;0.43;;
68010;SDS011;54794;48.348;7.878;2022-09-17T07:26:11;1.55;;;0.30;;
68010;SDS011;54794;48.348;7.878;2022-09-17T07:28:40;3.33;;;0.50;;
68010;SDS011;54794;48.348;7.878;2022-09-17T07:31:09;1.42;;;0.60;;
68010;SDS011;54794;48.348;7.878;2022-09-17T07:33:42;2.60;;;0.65;;
68010;SDS011;54794;48.348;7.878;2022-09-17T07:38:38;1.35;;;0.40;;
68010;SDS011;54794;48.348;7.878;2022-09-17T07:41:14;1.80;;;0.47;;
68010;SDS011;54794;48.348;7.878;2022-09-17T07:43:42;3.17;;;0.50;;
68010;SDS011;54794;48.348;7.878;2022-09-17T07:46:14;2.33;;;0.50;;
68010;SDS011;54794;48.348;7.878;2022-09-17T07:48:44;1.55;;;0.40;;
68010;SDS011;54794;48.348;7.878;2022-09-17T07:51:16;0.90;;;0.38;;
68010;SDS011;54794;48.348;7.878;2022-09-17T07:53:52;1.35;;;1.08;;
68010;SDS011;54794;48.348;7.878;2022-09-17T07:56:25;3.45;;;0.57;;
68010;SDS011;54794;48.348;7.878;2022-09-17T07:58:53;1.38;;;0.45;;
68010;SDS011;54794;48.348;7.878;2022-09-17T08:01:20;2.10;;;0.35;;
68010;SDS011;54794;48.348;7.878;2022-09-17T08:03:48;2.03;;;0.40;;
68010;SDS011;54794;48.348;7.878;2022-09-17T08:06:19;1.55;;;0.50;;
68010;SDS011;54794;48.348;7.878;2022-09-17T08:08:50;1.05;;;0.38;;
68010;SDS011;54794;48.348;7.878;2022-09-17T08:11:18;1.43;;;0.30;;
68010;SDS011;54794;48.348;7.878;2022-09-17T08:14:11;0.88;;;0.30;;
68010;SDS011;54794;48.348;7.878;2022-09-17T08:16:40;1.80;;;0.40;;
68010;SDS011;54794;48.348;7.878;2022-09-17T08:19:07;0.77;;;0.33;;
68010;SDS011;54794;48.348;7.878;2022-09-17T08:21:35;1.13;;;0.40;;
68010;SDS011;54794;48.348;7.878;2022-09-17T08:24:03;1.73;;;0.60;;
68010;SDS011;54794;48.348;7.878;2022-09-17T08:26:29;1.40;;;0.40;;
68010;SDS011;54794;48.348;7.878;2022-09-17T08:28:56;3.33;;;0.50;;
68010;SDS011;54794;48.348;7.878;2022-09-17T08:31:24;0.60;;;0.20;;
68010;SDS011;54794;48.348;7.878;2022-09-17T08:33:53;0.93;;;0.40;;
68010;SDS011;54794;48.348;7.878;2022-09-17T08:36:20;2.40;;;0.50;;
68010;SDS011;54794;48.348;7.878;2022-09-17T08:38:51;0.85;;;0.32;;
68010;SDS011;54794;48.348;7.878;2022-09-17T08:47:10;0.95;;;0.45;;
68010;SDS011;54794;48.348;7.878;2022-09-17T08:49:49;1.02;;;0.30;;
68010;SDS011;54794;48.348;7.878;2022-09-17T08:55:24;1.55;;;0.47;;
68010;SDS011;54794;48.348;7.878;2022-09-17T09:01:10;2.60;;;0.80;;
68010;SDS011;54794;48.348;7.878;2022-09-17T09:04:18;2.25;;;0.57;;
68010;SDS011;54794;48.348;7.878;2022-09-17T09:07:19;2.70;;;0.60;;
68010;SDS011;54794;48.348;7.878;2022-09-17T09:12:45;0.43;;;0.20;;
68010;SDS011;54794;48.348;7.878;2022-09-17T09:17:55;2.97;;;0.30;;
68010;SDS011;54794;48.348;7.878;2022-09-17T09:20:38;1.48;;;0.43;;
68010;SDS011;54794;48.348;7.878;2022-09-17T09:26:52;0.75;;;0.50;;
68010;SDS011;54794;48.348;7.878;2022-09-17T09:30:33;1.23;;;0.50;;
68010;SDS011;54794;48.348;7.878;2022-09-17T09:35:30;1.80;;;0.60;;
68010;SDS011;54794;48.348;7.878;2022-09-17T09:49:42;2.95;;;0.55;;
68010;SDS011;54794;48.348;7.878;2022-09-17T09:52:47;2.45;;;0.45;;
68010;SDS011;54794;48.348;7.878;2022-09-17T09:55:48;0.45;;;0.30;;
68010;SDS011;54794;48.348;7.878;2022-09-17T09:58:40;2.00;;;0.60;;
68010;SDS011;54794;48.348;7.878;2022-09-17T10:01:12;1.35;;;0.70;;
68010;SDS011;54794;48.348;7.878;2022-09-17T10:03:48;2.20;;;0.52;;
68010;SDS011;54794;48.348;7.878;2022-09-17T10:06:17;1.63;;;0.40;;
68010;SDS011;54794;48.348;7.878;2022-09-17T10:13:50;1.80;;;0.70;;
68010;SDS011;54794;48.348;7.878;2022-09-17T10:21:33;1.17;;;0.73;;
68010;SDS011;54794;48.348;7.878;2022-09-17T10:24:02;1.38;;;0.55;;
68010;SDS011;54794;48.348;7.878;2022-09-17T10:26:46;1.20;;;0.68;;
68010;SDS011;54794;48.348;7.878;2022-09-17T10:29:14;2.13;;;0.77;;
68010;SDS011;54794;48.348;7.878;2022-09-17T10:31:49;1.92;;;0.93;;
68010;SDS011;54794;48.348;7.878;2022-09-17T10:36:52;1.30;;;0.63;;
68010;SDS011;54794;48.348;7.878;2022-09-17T10:39:36;1.92;;;0.80;;
68010;SDS011;54794;48.348;7.878;2022-09-17T10:42:15;1.47;;;0.80;;
68010;SDS011;54794;48.348;7.878;2022-09-17T10:44:51;3.72;;;1.20;;
68010;SDS011;54794;48.348;7.878;2022-09-17T10:47:28;1.77;;;0.80;;
68010;SDS011;54794;48.348;7.878;2022-09-17T10:50:16;0.68;;;0.47;;
68010;SDS011;54794;48.348;7.878;2022-09-17T10:52:47;1.80;;;0.50;;
68010;SDS011;54794;48.348;7.878;2022-09-17T10:55:30;2.25;;;0.63;;
68010;SDS011;54794;48.348;7.878;2022-09-17T10:58:24;0.60;;;0.50;;
68010;SDS011;54794;48.348;7.878;2022-09-17T11:18:22;1.10;;;0.43;;
68010;SDS011;54794;48.348;7.878;2022-09-17T11:21:08;1.20;;;0.68;;
68010;SDS011;54794;48.348;7.878;2022-09-17T11:24:15;1.63;;;0.50;;
68010;SDS011;54794;48.348;7.878;2022-09-17T11:27:37;1.00;;;0.60;;
68010;SDS011;54794;48.348;7.878;2022-09-17T11:30:24;1.70;;;0.60;;
68010;SDS011;54794;48.348;7.878;2022-09-17T11:36:16;0.50;;;0.30;;
68010;SDS011;54794;48.348;7.878;2022-09-17T11:38:52;3.20;;;0.57;;
68010;SDS011;54794;48.348;7.878;2022-09-17T11:41:35;0.50;;;0.35;;
68010;SDS011;54794;48.348;7.878;2022-09-17T11:44:13;1.95;;;0.50;;
68010;SDS011;54794;48.348;7.878;2022-09-17T11:46:57;2.17;;;0.63;;
68010;SDS011;54794;48.348;7.878;2022-09-17T11:49:41;1.88;;;0.60;;
68010;SDS011;54794;48.348;7.878;2022-09-17T11:55:15;2.10;;;0.55;;
68010;SDS011;54794;48.348;7.878;2022-09-17T11:57:55;1.30;;;0.70;;
68010;SDS011;54794;48.348;7.878;2022-09-17T12:00:35;1.30;;;0.40;;
68010;SDS011;54794;48.348;7.878;2022-09-17T12:06:10;2.05;;;0.70;;
68010;SDS011;54794;48.348;7.878;2022-09-17T12:12:00;2.35;;;0.65;;
68010;SDS011;54794;48.348;7.878;2022-09-17T12:15:43;1.15;;;0.63;;
68010;SDS011;54794;48.348;7.878;2022-09-17T12:20:59;2.25;;;0.50;;
68010;SDS011;54794;48.348;7.878;2022-09-17T12:23:31;1.23;;;0.60;;
68010;SDS011;54794;48.348;7.878;2022-09-17T12:31:55;2.03;;;0.65;;
68010;SDS011;54794;48.348;7.878;2022-09-17T12:37:41;3.05;;;0.82;;
68010;SDS011;54794;48.348;7.878;2022-09-17T12:40:35;1.15;;;0.55;;
68010;SDS011;54794;48.348;7.878;2022-09-17T13:01:49;2.50;;;0.73;;
68010;SDS011;54794;48.348;7.878;2022-09-17T13:07:52;1.48;;;0.57;;
68010;SDS011;54794;48.348;7.878;2022-09-17T13:19:29;1.15;;;0.55;;
68010;SDS011;54794;48.348;7.878;2022-09-17T13:22:19;0.82;;;0.50;;
68010;SDS011;54794;48.348;7.878;2022-09-17T13:25:27;2.25;;;0.60;;
68010;SDS011;54794;48.348;7.878;2022-09-17T13:27:48;1.30;;;0.52;;
68010;SDS011;54794;48.348;7.878;2022-09-17T13:30:31;1.25;;;0.70;;
68010;SDS011;54794;48.348;7.878;2022-09-17T13:39:04;1.35;;;0.50;;
68010;SDS011;54794;48.348;7.878;2022-09-17T13:41:35;3.35;;;0.95;;
68010;SDS011;54794;48.348;7.878;2022-09-17T13:44:07;0.52;;;0.30;;
68010;SDS011;54794;48.348;7.878;2022-09-17T13:46:37;1.92;;;0.68;;
68010;SDS011;54794;48.348;7.878;2022-09-17T13:54:08;1.38;;;0.45;;
68010;SDS011;54794;48.348;7.878;2022-09-17T13:56:47;2.55;;;0.55;;
68010;SDS011;54794;48.348;7.878;2022-09-17T13:59:33;1.50;;;0.80;;
68010;SDS011;54794;48.348;7.878;2022-09-17T14:09:51;2.30;;;0.50;;
68010;SDS011;54794;48.348;7.878;2022-09-17T14:23:43;1.65;;;0.20;;
68010;SDS011;54794;48.348;7.878;2022-09-17T14:26:17;2.42;;;0.30;;
68010;SDS011;54794;48.348;7.878;2022-09-17T14:29:19;1.45;;;0.40;;
68010;SDS011;54794;48.348;7.878;2022-09-17T14:32:06;0.63;;;0.30;;
68010;SDS011;54794;48.348;7.878;2022-09-17T14:34:41;1.40;;;0.47;;
68010;SDS011;54794;48.348;7.878;2022-09-17T14:37:11;0.63;;;0.30;;
68010;SDS011;54794;48.348;7.878;2022-09-17T14:39:44;3.05;;;0.52;;
68010;SDS011;54794;48.348;7.878;2022-09-17T14:42:15;1.02;;;0.47;;
68010;SDS011;54794;48.348;7.878;2022-09-17T14:44:58;1.33;;;0.40;;
68010;SDS011;54794;48.348;7.878;2022-09-17T14:47:29;3.47;;;0.40;;
68010;SDS011;54794;48.348;7.878;2022-09-17T14:50:16;0.75;;;0.30;;
68010;SDS011;54794;48.348;7.878;2022-09-17T14:52:52;2.28;;;0.40;;
68010;SDS011;54794;48.348;7.878;2022-09-17T14:55:23;2.13;;;0.50;;
68010;SDS011;54794;48.348;7.878;2022-09-17T14:57:57;0.90;;;0.30;;
68010;SDS011;54794;48.348;7.878;2022-09-17T15:00:33;3.35;;;0.43;;
68010;SDS011;54794;48.348;7.878;2022-09-17T15:03:03;1.42;;;0.40;;
68010;SDS011;54794;48.348;7.878;2022-09-17T15:05:32;1.33;;;0.50;;
68010;SDS011;54794;48.348;7.878;2022-09-17T15:10:38;2.80;;;0.80;;
68010;SDS011;54794;48.348;7.878;2022-09-17T15:16:22;0.45;;;0.40;;
68010;SDS011;54794;48.348;7.878;2022-09-17T15:18:53;1.70;;;0.60;;
68010;SDS011;54794;48.348;7.878;2022-09-17T15:27:11;12.85;;;0.65;;
68010;SDS011;54794;48.348;7.878;2022-09-17T15:29:48;1.40;;;0.60;;
68010;SDS011;54794;48.348;7.878;2022-09-17T15:32:28;1.92;;;0.80;;
68010;SDS011;54794;48.348;7.878;2022-09-17T15:40:35;2.10;;;0.70;;
68010;SDS011;54794;48.348;7.878;2022-09-17T15:43:25;1.80;;;0.60;;
68010;SDS011;54794;48.348;7.878;2022-09-17T15:48:56;2.08;;;0.60;;
68010;SDS011;54794;48.348;7.878;2022-09-17T15:51:33;2.20;;;0.60;;
68010;SDS011;54794;48.348;7.878;2022-09-17T15:54:04;2.72;;;0.85;;
68010;SDS011;54794;48.348;7.878;2022-09-17T15:56:38;1.75;;;0.65;;
68010;SDS011;54794;48.348;7.878;2022-09-17T15:59:26;2.88;;;0.80;;
68010;SDS011;54794;48.348;7.878;2022-09-17T16:01:57;2.45;;;1.00;;
68010;SDS011;54794;48.348;7.878;2022-09-17T16:12:19;1.13;;;0.40;;
68010;SDS011;54794;48.348;7.878;2022-09-17T16:14:53;1.73;;;0.63;;
68010;SDS011;54794;48.348;7.878;2022-09-17T16:17:23;1.98;;;0.60;;
68010;SDS011;54794;48.348;7.878;2022-09-17T16:22:49;2.72;;;0.80;;
68010;SDS011;54794;48.348;7.878;2022-09-17T16:25:24;2.50;;;1.20;;
68010;SDS011;54794;48.348;7.878;2022-09-17T16:30:24;2.53;;;0.88;;
68010;SDS011;54794;48.348;7.878;2022-09-17T16:32:52;2.72;;;0.50;;
68010;SDS011;54794;48.348;7.878;2022-09-17T16:35:20;1.27;;;0.60;;
68010;SDS011;54794;48.348;7.878;2022-09-17T16:37:50;1.95;;;0.60;;
68010;SDS011;54794;48.348;7.878;2022-09-17T16:40:20;2.25;;;0.95;;
68010;SDS011;54794;48.348;7.878;2022-09-17T16:42:53;3.67;;;1.30;;
68010;SDS011;54794;48.348;7.878;2022-09-17T16:45:20;3.22;;;0.90;;
68010;SDS011;54794;48.348;7.878;2022-09-17T16:47:53;2.40;;;0.85;;
68010;SDS011;54794;48.348;7.878;2022-09-17T16:50:20;2.15;;;0.50;;
68010;SDS011;54794;48.348;7.878;2022-09-17T16:52:47;3.30;;;0.70;;
68010;SDS011;54794;48.348;7.878;2022-09-17T16:55:15;1.27;;;0.50;;
68010;SDS011;54794;48.348;7.878;2022-09-17T16:57:43;3.15;;;0.57;;
68010;SDS011;54794;48.348;7.878;2022-09-17T17:00:10;1.55;;;0.38;;
68010;SDS011;54794;48.348;7.878;2022-09-17T17:02:42;1.17;;;0.47;;
68010;SDS011;54794;48.348;7.878;2022-09-17T17:05:10;0.95;;;0.35;;
68010;SDS011;54794;48.348;7.878;2022-09-17T17:07:37;0.50;;;0.20;;
68010;SDS011;54794;48.348;7.878;2022-09-17T17:10:04;2.10;;;0.63;;
68010;SDS011;54794;48.348;7.878;2022-09-17T17:12:34;1.13;;;0.45;;
68010;SDS011;54794;48.348;7.878;2022-09-17T17:15:02;1.98;;;0.63;;
68010;SDS011;54794;48.348;7.878;2022-09-17T17:17:34;0.80;;;0.35;;
68010;SDS011;54794;48.348;7.878;2022-09-17T17:22:39;1.52;;;0.63;;
68010;SDS011;54794;48.348;7.878;2022-09-17T17:25:08;1.98;;;0.52;;
68010;SDS011;54794;48.348;7.878;2022-09-17T17:27:38;2.80;;;0.90;;
68010;SDS011;54794;48.348;7.878;2022-09-17T17:32:34;2.33;;;1.10;;
68010;SDS011;54794;48.348;7.878;2022-09-17T17:35:02;2.85;;;1.02;;
68010;SDS011;54794;48.348;7.878;2022-09-17T17:37:30;4.10;;;1.20;;
68010;SDS011;54794;48.348;7.878;2022-09-17T17:39:57;3.47;;;1.23;;
68010;SDS011;54794;48.348;7.878;2022-09-17T17:42:24;3.25;;;1.10;;
68010;SDS011;54794;48.348;7.878;2022-09-17T17:44:51;2.13;;;0.93;;
68010;SDS011;54794;48.348;7.878;2022-09-17T17:47:21;4.25;;;0.93;;
68010;SDS011;54794;48.348;7.878;2022-09-17T17:49:48;2.40;;;0.70;;
68010;SDS011;54794;48.348;7.878;2022-09-17T17:52:15;2.58;;;0.70;;
68010;SDS011;54794;48.348;7.878;2022-09-17T17:54:42;2.13;;;0.60;;
68010;SDS011;54794;48.348;7.878;2022-09-17T17:57:08;1.77;;;0.60;;
68010;SDS011;54794;48.348;7.878;2022-09-17T17:59:36;1.95;;;0.60;;
68010;SDS011;54794;48.348;7.878;2022-09-17T18:02:03;1.47;;;0.60;;
68010;SDS011;54794;48.348;7.878;2022-09-17T18:04:30;1.95;;;0.70;;
68010;SDS011;54794;48.348;7.878;2022-09-17T18:06:57;2.27;;;0.70;;
68010;SDS011;54794;48.348;7.878;2022-09-17T18:09:23;2.33;;;0.60;;
68010;SDS011;54794;48.348;7.878;2022-09-17T18:11:50;1.83;;;0.60;;
68010;SDS011;54794;48.348;7.878;2022-09-17T18:14:17;1.57;;;0.83;;
68010;SDS011;54794;48.348;7.878;2022-09-17T18:16:44;2.58;;;0.60;;
68010;SDS011;54794;48.348;7.878;2022-09-17T18:19:11;2.30;;;0.47;;
68010;SDS011;54794;48.348;7.878;2022-09-17T18:21:38;1.27;;;0.50;;
68010;SDS011;54794;48.348;7.878;2022-09-17T18:24:05;1.30;;;0.57;;
68010;SDS011;54794;48.348;7.878;2022-09-17T18:26:32;2.30;;;0.40;;
68010;SDS011;54794;48.348;7.878;2022-09-17T18:28:59;2.53;;;0.60;;
68010;SDS011;54794;48.348;7.878;2022-09-17T18:31:33;0.90;;;0.38;;
68010;SDS011;54794;48.348;7.878;2022-09-17T18:34:05;1.20;;;0.40;;
68010;SDS011;54794;48.348;7.878;2022-09-17T18:36:36;1.63;;;0.45;;
68010;SDS011;54794;48.348;7.878;2022-09-17T18:39:05;1.58;;;0.40;;
68010;SDS011;54794;48.348;7.878;2022-09-17T18:41:56;2.42;;;0.40;;
68010;SDS011;54794;48.348;7.878;2022-09-17T18:44:23;1.70;;;0.47;;
68010;SDS011;54794;48.348;7.878;2022-09-17T18:46:50;1.10;;;0.40;;
68010;SDS011;54794;48.348;7.878;2022-09-17T18:49:17;1.00;;;0.50;;
68010;SDS011;54794;48.348;7.878;2022-09-17T18:51:44;1.50;;;0.70;;
68010;SDS011;54794;48.348;7.878;2022-09-17T18:54:11;0.90;;;0.40;;
68010;SDS011;54794;48.348;7.878;2022-09-17T18:56:38;2.53;;;0.50;;
68010;SDS011;54794;48.348;7.878;2022-09-17T18:59:07;1.50;;;0.38;;
68010;SDS011;54794;48.348;7.878;2022-09-17T19:01:35;1.10;;;0.43;;
68010;SDS011;54794;48.348;7.878;2022-09-17T19:04:02;1.27;;;0.55;;
68010;SDS011;54794;48.348;7.878;2022-09-17T19:06:32;1.17;;;0.45;;
68010;SDS011;54794;48.348;7.878;2022-09-17T19:08:59;0.70;;;0.57;;
68010;SDS011;54794;48.348;7.878;2022-09-17T19:11:28;1.40;;;0.55;;
68010;SDS011;54794;48.348;7.878;2022-09-17T19:13:55;0.65;;;0.43;;
68010;SDS011;54794;48.348;7.878;2022-09-17T19:16:22;2.05;;;0.60;;
68010;SDS011;54794;48.348;7.878;2022-09-17T19:18:49;1.80;;;0.60;;